sensor_id;sensor_type;location;lat;lon;timestamp;temperature;humidity
1936;DHT22;969;49.892;10.896;2023-01-23T00:01:04;16.40;44.10
1936;DHT22;969;49.892;10.896;2023-01-23T00:03:30;16.40;44.20
1936;DHT22;969;49.892;10.896;2023-01-23T00:06:10;16.30;44.10
1936;DHT22;969;49.892;10.896;2023-01-23T00:08:40;16.30;44.20
1936;DHT22;969;49.892;10.896;2023-01-23T00:11:09;16.30;44.20
1936;DHT22;969;49.892;10.896;2023-01-23T00:13:35;16.20;44.10
1936;DHT22;969;49.892;10.896;2023-01-23T00:16:13;16.20;44.10
1936;DHT22;969;49.892;10.896;2023-01-23T00:18:39;16.20;44.20
1936;DHT22;969;49.892;10.896;2023-01-23T00:21:06;16.20;44.20
1936;DHT22;969;49.892;10.896;2023-01-23T00:23:33;16.20;44.20
1936;DHT22;969;49.892;10.896;2023-01-23T00:26:06;16.10;44.10
1936;DHT22;969;49.892;10.896;2023-01-23T00:28:33;16.10;44.20
1936;DHT22;969;49.892;10.896;2023-01-23T00:31:07;16.10;44.20
1936;DHT22;969;49.892;10.896;2023-01-23T00:33:33;16.10;44.20
1936;DHT22;969;49.892;10.896;2023-01-23T00:36:00;16.10;44.30
1936;DHT22;969;49.892;10.896;2023-01-23T00:38:26;16.10;44.30
1936;DHT22;969;49.892;10.896;2023-01-23T00:40:51;16.00;44.30
1936;DHT22;969;49.892;10.896;2023-01-23T00:43:19;16.00;44.30
1936;DHT22;969;49.892;10.896;2023-01-23T00:45:45;16.00;44.30
1936;DHT22;969;49.892;10.896;2023-01-23T00:48:11;16.00;44.30
1936;DHT22;969;49.892;10.896;2023-01-23T00:50:37;16.00;44.90
1936;DHT22;969;49.892;10.896;2023-01-23T00:53:02;16.00;44.30
1936;DHT22;969;49.892;10.896;2023-01-23T00:55:28;15.90;44.20
1936;DHT22;969;49.892;10.896;2023-01-23T00:57:53;15.90;44.30
1936;DHT22;969;49.892;10.896;2023-01-23T01:00:19;15.90;44.30
1936;DHT22;969;49.892;10.896;2023-01-23T01:02:45;15.90;44.30
1936;DHT22;969;49.892;10.896;2023-01-23T01:05:10;15.90;44.40
1936;DHT22;969;49.892;10.896;2023-01-23T01:07:36;15.90;44.30
1936;DHT22;969;49.892;10.896;2023-01-23T01:10:02;15.90;44.40
1936;DHT22;969;49.892;10.896;2023-01-23T01:12:28;15.90;44.40
1936;DHT22;969;49.892;10.896;2023-01-23T01:14:53;15.80;44.30
1936;DHT22;969;49.892;10.896;2023-01-23T01:17:19;15.80;44.30
1936;DHT22;969;49.892;10.896;2023-01-23T01:19:44;15.80;44.30
1936;DHT22;969;49.892;10.896;2023-01-23T01:22:10;15.80;44.30
1936;DHT22;969;49.892;10.896;2023-01-23T01:24:35;15.80;44.30
1936;DHT22;969;49.892;10.896;2023-01-23T01:27:01;15.80;44.30
1936;DHT22;969;49.892;10.896;2023-01-23T01:29:27;15.70;44.30
1936;DHT22;969;49.892;10.896;2023-01-23T01:31:52;15.80;44.40
1936;DHT22;969;49.892;10.896;2023-01-23T01:34:18;15.70;44.30
1936;DHT22;969;49.892;10.896;2023-01-23T01:36:43;15.70;44.40
1936;DHT22;969;49.892;10.896;2023-01-23T01:39:09;15.70;44.40
1936;DHT22;969;49.892;10.896;2023-01-23T01:41:35;15.70;44.40
1936;DHT22;969;49.892;10.896;2023-01-23T01:44:00;15.70;44.40
1936;DHT22;969;49.892;10.896;2023-01-23T01:46:30;15.70;44.40
1936;DHT22;969;49.892;10.896;2023-01-23T01:49:14;15.70;44.40
1936;DHT22;969;49.892;10.896;2023-01-23T01:51:50;15.70;44.40
1936;DHT22;969;49.892;10.896;2023-01-23T01:57:03;15.60;44.50
1936;DHT22;969;49.892;10.896;2023-01-23T01:59:45;15.60;44.40
1936;DHT22;969;49.892;10.896;2023-01-23T02:02:16;15.60;44.40
1936;DHT22;969;49.892;10.896;2023-01-23T02:04:48;15.60;44.50
1936;DHT22;969;49.892;10.896;2023-01-23T02:07:37;15.60;44.50
1936;DHT22;969;49.892;10.896;2023-01-23T02:10:05;15.60;44.50
1936;DHT22;969;49.892;10.896;2023-01-23T02:12:31;15.60;44.50
1936;DHT22;969;49.892;10.896;2023-01-23T02:15:00;15.50;44.50
1936;DHT22;969;49.892;10.896;2023-01-23T02:17:27;15.50;44.50
1936;DHT22;969;49.892;10.896;2023-01-23T02:20:02;15.50;44.50
1936;DHT22;969;49.892;10.896;2023-01-23T02:23:36;15.50;44.50
1936;DHT22;969;49.892;10.896;2023-01-23T02:28:10;15.50;44.60
1936;DHT22;969;49.892;10.896;2023-01-23T02:30:37;15.50;44.60
1936;DHT22;969;49.892;10.896;2023-01-23T02:35:49;15.50;44.60
1936;DHT22;969;49.892;10.896;2023-01-23T02:38:18;15.40;44.60
1936;DHT22;969;49.892;10.896;2023-01-23T02:40:45;15.40;44.60
1936;DHT22;969;49.892;10.896;2023-01-23T02:43:14;15.40;44.60
1936;DHT22;969;49.892;10.896;2023-01-23T02:45:40;15.40;44.60
1936;DHT22;969;49.892;10.896;2023-01-23T02:48:06;15.40;44.60
1936;DHT22;969;49.892;10.896;2023-01-23T02:50:33;15.40;44.60
1936;DHT22;969;49.892;10.896;2023-01-23T02:52:59;15.40;44.60
1936;DHT22;969;49.892;10.896;2023-01-23T02:55:25;15.40;44.60
1936;DHT22;969;49.892;10.896;2023-01-23T02:57:54;15.40;44.70
1936;DHT22;969;49.892;10.896;2023-01-23T03:00:41;15.40;44.70
1936;DHT22;969;49.892;10.896;2023-01-23T03:03:08;15.30;44.70
1936;DHT22;969;49.892;10.896;2023-01-23T03:05:34;15.30;44.60
1936;DHT22;969;49.892;10.896;2023-01-23T03:07:59;15.30;44.60
1936;DHT22;969;49.892;10.896;2023-01-23T03:10:25;15.30;44.60
1936;DHT22;969;49.892;10.896;2023-01-23T03:12:50;15.30;44.60
1936;DHT22;969;49.892;10.896;2023-01-23T03:15:16;15.30;44.60
1936;DHT22;969;49.892;10.896;2023-01-23T03:17:42;15.30;44.60
1936;DHT22;969;49.892;10.896;2023-01-23T03:20:08;15.30;44.60
1936;DHT22;969;49.892;10.896;2023-01-23T03:22:34;15.20;44.60
1936;DHT22;969;49.892;10.896;2023-01-23T03:24:59;15.20;44.60
1936;DHT22;969;49.892;10.896;2023-01-23T03:27:25;15.20;44.60
1936;DHT22;969;49.892;10.896;2023-01-23T03:29:51;15.20;44.60
1936;DHT22;969;49.892;10.896;2023-01-23T03:32:36;15.20;44.60
1936;DHT22;969;49.892;10.896;2023-01-23T03:35:03;15.20;44.60
1936;DHT22;969;49.892;10.896;2023-01-23T03:37:29;15.20;44.60
1936;DHT22;969;49.892;10.896;2023-01-23T03:39:55;15.20;44.60
1936;DHT22;969;49.892;10.896;2023-01-23T03:42:39;15.20;44.60
1936;DHT22;969;49.892;10.896;2023-01-23T03:45:05;15.20;44.60
1936;DHT22;969;49.892;10.896;2023-01-23T03:47:31;15.10;44.60
1936;DHT22;969;49.892;10.896;2023-01-23T03:49:56;15.10;44.60
1936;DHT22;969;49.892;10.896;2023-01-23T03:52:22;15.10;44.60
1936;DHT22;969;49.892;10.896;2023-01-23T03:54:48;15.10;44.60
1936;DHT22;969;49.892;10.896;2023-01-23T03:57:13;15.10;44.70
1936;DHT22;969;49.892;10.896;2023-01-23T03:59:39;15.10;44.70
1936;DHT22;969;49.892;10.896;2023-01-23T04:02:05;15.10;44.70
1936;DHT22;969;49.892;10.896;2023-01-23T04:04:31;15.10;44.70
1936;DHT22;969;49.892;10.896;2023-01-23T04:06:57;15.10;44.70
1936;DHT22;969;49.892;10.896;2023-01-23T04:09:23;15.00;44.60
1936;DHT22;969;49.892;10.896;2023-01-23T04:11:56;15.00;44.60
1936;DHT22;969;49.892;10.896;2023-01-23T04:14:24;15.00;44.70
1936;DHT22;969;49.892;10.896;2023-01-23T04:16:50;15.00;45.20
1936;DHT22;969;49.892;10.896;2023-01-23T04:19:16;15.00;44.70
1936;DHT22;969;49.892;10.896;2023-01-23T04:21:45;15.00;44.70
1936;DHT22;969;49.892;10.896;2023-01-23T04:24:11;15.00;44.70
1936;DHT22;969;49.892;10.896;2023-01-23T04:26:37;15.00;44.80
1936;DHT22;969;49.892;10.896;2023-01-23T04:29:03;15.00;44.70
1936;DHT22;969;49.892;10.896;2023-01-23T04:31:29;15.00;44.80
1936;DHT22;969;49.892;10.896;2023-01-23T04:33:55;15.00;44.80
1936;DHT22;969;49.892;10.896;2023-01-23T04:36:21;14.90;44.70
1936;DHT22;969;49.892;10.896;2023-01-23T04:38:47;15.00;44.80
1936;DHT22;969;49.892;10.896;2023-01-23T04:41:21;14.90;44.80
1936;DHT22;969;49.892;10.896;2023-01-23T04:43:47;14.90;44.80
1936;DHT22;969;49.892;10.896;2023-01-23T04:46:12;14.90;44.80
1936;DHT22;969;49.892;10.896;2023-01-23T04:48:38;14.90;44.80
1936;DHT22;969;49.892;10.896;2023-01-23T04:51:04;14.90;45.30
1936;DHT22;969;49.892;10.896;2023-01-23T04:53:30;14.90;44.80
1936;DHT22;969;49.892;10.896;2023-01-23T04:55:55;14.90;44.80
1936;DHT22;969;49.892;10.896;2023-01-23T04:58:21;14.90;44.80
1936;DHT22;969;49.892;10.896;2023-01-23T05:00:47;14.90;44.80
1936;DHT22;969;49.892;10.896;2023-01-23T05:03:13;14.90;44.80
1936;DHT22;969;49.892;10.896;2023-01-23T05:05:39;14.90;44.80
1936;DHT22;969;49.892;10.896;2023-01-23T05:08:07;14.80;44.80
1936;DHT22;969;49.892;10.896;2023-01-23T05:10:32;14.80;44.80
1936;DHT22;969;49.892;10.896;2023-01-23T05:12:58;14.80;44.80
1936;DHT22;969;49.892;10.896;2023-01-23T05:15:24;14.80;44.80
1936;DHT22;969;49.892;10.896;2023-01-23T05:17:49;14.80;44.80
1936;DHT22;969;49.892;10.896;2023-01-23T05:20:15;14.80;44.80
1936;DHT22;969;49.892;10.896;2023-01-23T05:22:41;14.90;44.90
1936;DHT22;969;49.892;10.896;2023-01-23T05:25:20;14.80;44.80
1936;DHT22;969;49.892;10.896;2023-01-23T05:27:46;14.80;44.90
1936;DHT22;969;49.892;10.896;2023-01-23T05:30:12;14.80;44.80
1936;DHT22;969;49.892;10.896;2023-01-23T05:32:38;14.80;44.80
1936;DHT22;969;49.892;10.896;2023-01-23T05:35:04;14.80;44.80
1936;DHT22;969;49.892;10.896;2023-01-23T05:37:29;14.80;44.80
1936;DHT22;969;49.892;10.896;2023-01-23T05:39:55;14.80;45.40
1936;DHT22;969;49.892;10.896;2023-01-23T05:42:21;14.80;44.90
1936;DHT22;969;49.892;10.896;2023-01-23T05:44:46;14.80;44.90
1936;DHT22;969;49.892;10.896;2023-01-23T05:47:12;14.80;44.90
1936;DHT22;969;49.892;10.896;2023-01-23T05:49:39;14.70;44.80
1936;DHT22;969;49.892;10.896;2023-01-23T05:52:04;14.70;44.80
1936;DHT22;969;49.892;10.896;2023-01-23T05:54:30;14.70;44.80
1936;DHT22;969;49.892;10.896;2023-01-23T05:56:59;14.70;44.80
1936;DHT22;969;49.892;10.896;2023-01-23T05:59:24;14.70;44.80
1936;DHT22;969;49.892;10.896;2023-01-23T06:01:50;14.70;44.80
1936;DHT22;969;49.892;10.896;2023-01-23T06:04:15;14.70;44.80
1936;DHT22;969;49.892;10.896;2023-01-23T06:06:42;14.70;44.80
1936;DHT22;969;49.892;10.896;2023-01-23T06:09:08;14.70;44.80
1936;DHT22;969;49.892;10.896;2023-01-23T06:11:37;14.70;44.80
1936;DHT22;969;49.892;10.896;2023-01-23T06:14:03;14.70;44.90
1936;DHT22;969;49.892;10.896;2023-01-23T06:16:28;14.70;44.90
1936;DHT22;969;49.892;10.896;2023-01-23T06:18:54;14.70;44.90
1936;DHT22;969;49.892;10.896;2023-01-23T06:21:19;14.70;45.50
1936;DHT22;969;49.892;10.896;2023-01-23T06:23:45;14.70;45.00
1936;DHT22;969;49.892;10.896;2023-01-23T06:26:11;14.70;45.30
1936;DHT22;969;49.892;10.896;2023-01-23T06:28:37;14.60;45.10
1936;DHT22;969;49.892;10.896;2023-01-23T06:31:03;14.60;45.10
1936;DHT22;969;49.892;10.896;2023-01-23T06:33:33;14.60;45.20
1936;DHT22;969;49.892;10.896;2023-01-23T06:36:00;14.60;45.20
1936;DHT22;969;49.892;10.896;2023-01-23T06:38:26;14.60;45.30
1936;DHT22;969;49.892;10.896;2023-01-23T06:40:52;14.70;45.50
1936;DHT22;969;49.892;10.896;2023-01-23T06:43:18;14.70;45.50
1936;DHT22;969;49.892;10.896;2023-01-23T06:45:45;14.60;45.40
1936;DHT22;969;49.892;10.896;2023-01-23T06:48:11;14.60;45.40
1936;DHT22;969;49.892;10.896;2023-01-23T06:50:38;14.60;45.40
1936;DHT22;969;49.892;10.896;2023-01-23T06:53:03;14.60;45.50
1936;DHT22;969;49.892;10.896;2023-01-23T06:55:30;14.60;45.40
1936;DHT22;969;49.892;10.896;2023-01-23T06:57:55;14.60;45.50
1936;DHT22;969;49.892;10.896;2023-01-23T07:00:21;14.60;45.50
1936;DHT22;969;49.892;10.896;2023-01-23T07:02:47;14.60;45.50
1936;DHT22;969;49.892;10.896;2023-01-23T07:05:13;14.60;45.50
1936;DHT22;969;49.892;10.896;2023-01-23T07:07:39;14.60;45.50
1936;DHT22;969;49.892;10.896;2023-01-23T07:10:05;14.60;45.50
1936;DHT22;969;49.892;10.896;2023-01-23T07:12:30;14.60;45.50
1936;DHT22;969;49.892;10.896;2023-01-23T07:14:56;14.60;46.20
1936;DHT22;969;49.892;10.896;2023-01-23T07:17:21;14.60;45.40
1936;DHT22;969;49.892;10.896;2023-01-23T07:19:47;14.60;47.30
1936;DHT22;969;49.892;10.896;2023-01-23T07:22:19;14.60;44.80
1936;DHT22;969;49.892;10.896;2023-01-23T07:24:45;15.20;44.40
1936;DHT22;969;49.892;10.896;2023-01-23T07:27:12;16.20;42.90
1936;DHT22;969;49.892;10.896;2023-01-23T07:29:37;16.90;41.30
1936;DHT22;969;49.892;10.896;2023-01-23T07:32:03;17.10;40.90
1936;DHT22;969;49.892;10.896;2023-01-23T07:34:29;17.20;40.90
1936;DHT22;969;49.892;10.896;2023-01-23T07:36:54;17.80;40.40
1936;DHT22;969;49.892;10.896;2023-01-23T07:39:20;18.10;39.90
1936;DHT22;969;49.892;10.896;2023-01-23T07:41:46;18.10;39.70
1936;DHT22;969;49.892;10.896;2023-01-23T07:44:15;18.10;40.00
1936;DHT22;969;49.892;10.896;2023-01-23T07:46:43;18.40;40.10
1936;DHT22;969;49.892;10.896;2023-01-23T07:49:08;18.50;39.70
1936;DHT22;969;49.892;10.896;2023-01-23T07:51:34;18.60;39.60
1936;DHT22;969;49.892;10.896;2023-01-23T07:54:00;18.60;39.60
1936;DHT22;969;49.892;10.896;2023-01-23T07:56:26;18.60;39.50
1936;DHT22;969;49.892;10.896;2023-01-23T07:58:51;18.50;39.50
1936;DHT22;969;49.892;10.896;2023-01-23T08:01:17;18.40;39.90
1936;DHT22;969;49.892;10.896;2023-01-23T08:03:44;18.90;39.60
1936;DHT22;969;49.892;10.896;2023-01-23T08:06:10;19.10;38.80
1936;DHT22;969;49.892;10.896;2023-01-23T08:08:35;19.10;38.90
1936;DHT22;969;49.892;10.896;2023-01-23T08:11:08;19.10;39.00
1936;DHT22;969;49.892;10.896;2023-01-23T08:13:36;19.50;38.90
1936;DHT22;969;49.892;10.896;2023-01-23T08:16:02;19.60;38.20
1936;DHT22;969;49.892;10.896;2023-01-23T08:18:29;19.60;38.20
1936;DHT22;969;49.892;10.896;2023-01-23T08:20:56;19.50;38.30
1936;DHT22;969;49.892;10.896;2023-01-23T08:23:27;19.70;38.50
1936;DHT22;969;49.892;10.896;2023-01-23T08:25:53;19.90;38.10
1936;DHT22;969;49.892;10.896;2023-01-23T08:28:21;19.80;38.00
1936;DHT22;969;49.892;10.896;2023-01-23T08:30:47;19.70;38.40
1936;DHT22;969;49.892;10.896;2023-01-23T08:33:13;19.60;38.60
1936;DHT22;969;49.892;10.896;2023-01-23T08:35:39;19.50;38.90
1936;DHT22;969;49.892;10.896;2023-01-23T08:38:12;19.30;39.40
1936;DHT22;969;49.892;10.896;2023-01-23T08:40:37;19.40;39.90
1936;DHT22;969;49.892;10.896;2023-01-23T08:43:03;19.60;40.50
1936;DHT22;969;49.892;10.896;2023-01-23T08:45:29;19.70;40.10
1936;DHT22;969;49.892;10.896;2023-01-23T08:47:57;19.60;40.30
1936;DHT22;969;49.892;10.896;2023-01-23T08:50:22;19.90;40.20
1936;DHT22;969;49.892;10.896;2023-01-23T08:52:48;20.00;39.80
1936;DHT22;969;49.892;10.896;2023-01-23T08:55:13;20.00;39.80
1936;DHT22;969;49.892;10.896;2023-01-23T08:57:39;19.90;40.20
1936;DHT22;969;49.892;10.896;2023-01-23T09:00:05;19.70;40.80
1936;DHT22;969;49.892;10.896;2023-01-23T09:02:31;19.90;40.50
1936;DHT22;969;49.892;10.896;2023-01-23T09:04:56;19.90;40.50
1936;DHT22;969;49.892;10.896;2023-01-23T09:07:22;19.70;40.90
1936;DHT22;969;49.892;10.896;2023-01-23T09:09:48;19.80;40.90
1936;DHT22;969;49.892;10.896;2023-01-23T09:12:13;19.80;41.10
1936;DHT22;969;49.892;10.896;2023-01-23T09:14:39;19.70;41.30
1936;DHT22;969;49.892;10.896;2023-01-23T09:17:05;19.60;41.50
1936;DHT22;969;49.892;10.896;2023-01-23T09:19:31;20.00;41.20
1936;DHT22;969;49.892;10.896;2023-01-23T09:21:57;20.00;40.80
1936;DHT22;969;49.892;10.896;2023-01-23T09:24:23;20.00;40.70
1936;DHT22;969;49.892;10.896;2023-01-23T09:26:48;20.10;40.70
1936;DHT22;969;49.892;10.896;2023-01-23T09:29:17;20.40;40.30
1936;DHT22;969;49.892;10.896;2023-01-23T09:31:42;20.50;40.20
1936;DHT22;969;49.892;10.896;2023-01-23T09:34:08;20.40;40.10
1936;DHT22;969;49.892;10.896;2023-01-23T09:36:34;20.30;40.30
1936;DHT22;969;49.892;10.896;2023-01-23T09:39:00;20.10;40.60
1936;DHT22;969;49.892;10.896;2023-01-23T09:41:28;19.90;40.80
1936;DHT22;969;49.892;10.896;2023-01-23T09:43:58;19.70;41.00
1936;DHT22;969;49.892;10.896;2023-01-23T09:46:42;19.40;41.30
1936;DHT22;969;49.892;10.896;2023-01-23T09:52:01;20.00;40.70
1936;DHT22;969;49.892;10.896;2023-01-23T09:54:43;20.20;40.40
1936;DHT22;969;49.892;10.896;2023-01-23T09:58:14;20.30;40.30
1936;DHT22;969;49.892;10.896;2023-01-23T10:00:46;20.20;40.30
1936;DHT22;969;49.892;10.896;2023-01-23T10:03:12;20.10;40.60
1936;DHT22;969;49.892;10.896;2023-01-23T10:11:22;20.50;40.00
1936;DHT22;969;49.892;10.896;2023-01-23T10:16:45;20.50;40.20
1936;DHT22;969;49.892;10.896;2023-01-23T10:22:53;21.10;39.20
1936;DHT22;969;49.892;10.896;2023-01-23T10:24:56;21.10;39.20
1936;DHT22;969;49.892;10.896;2023-01-23T10:27:31;21.00;39.40
1936;DHT22;969;49.892;10.896;2023-01-23T10:33:12;20.60;39.80
1936;DHT22;969;49.892;10.896;2023-01-23T10:36:00;20.30;40.00
1936;DHT22;969;49.892;10.896;2023-01-23T10:38:38;20.00;40.50
1936;DHT22;969;49.892;10.896;2023-01-23T10:41:11;19.70;41.30
1936;DHT22;969;49.892;10.896;2023-01-23T10:43:46;19.50;41.10
1936;DHT22;969;49.892;10.896;2023-01-23T10:46:19;19.40;41.40
1936;DHT22;969;49.892;10.896;2023-01-23T10:48:48;19.20;41.20
1936;DHT22;969;49.892;10.896;2023-01-23T10:51:24;19.10;41.20
1936;DHT22;969;49.892;10.896;2023-01-23T10:56:38;19.40;41.40
1936;DHT22;969;49.892;10.896;2023-01-23T10:59:20;19.60;40.90
1936;DHT22;969;49.892;10.896;2023-01-23T11:02:16;19.70;40.60
1936;DHT22;969;49.892;10.896;2023-01-23T11:04:45;19.70;40.50
1936;DHT22;969;49.892;10.896;2023-01-23T11:07:17;20.40;40.20
1936;DHT22;969;49.892;10.896;2023-01-23T11:10:17;20.60;39.50
1936;DHT22;969;49.892;10.896;2023-01-23T11:12:50;20.70;39.00
1936;DHT22;969;49.892;10.896;2023-01-23T11:15:26;20.70;38.90
1936;DHT22;969;49.892;10.896;2023-01-23T11:17:55;20.70;39.10
1936;DHT22;969;49.892;10.896;2023-01-23T11:20:31;20.40;39.30
1936;DHT22;969;49.892;10.896;2023-01-23T11:23:17;20.20;39.70
1936;DHT22;969;49.892;10.896;2023-01-23T11:25:48;19.90;40.00
1936;DHT22;969;49.892;10.896;2023-01-23T11:31:08;19.60;40.30
1936;DHT22;969;49.892;10.896;2023-01-23T11:36:44;19.40;40.80
1936;DHT22;969;49.892;10.896;2023-01-23T11:41:50;19.20;41.00
1936;DHT22;969;49.892;10.896;2023-01-23T11:44:18;19.20;41.10
1936;DHT22;969;49.892;10.896;2023-01-23T11:49:54;19.20;41.10
1936;DHT22;969;49.892;10.896;2023-01-23T11:58:15;19.20;41.30
1936;DHT22;969;49.892;10.896;2023-01-23T12:01:08;19.20;41.30
1936;DHT22;969;49.892;10.896;2023-01-23T12:09:13;19.10;41.50
1936;DHT22;969;49.892;10.896;2023-01-23T12:12:08;19.10;41.50
1936;DHT22;969;49.892;10.896;2023-01-23T12:14:42;19.10;41.50
1936;DHT22;969;49.892;10.896;2023-01-23T12:22:22;19.00;41.50
1936;DHT22;969;49.892;10.896;2023-01-23T12:27:46;18.90;41.60
1936;DHT22;969;49.892;10.896;2023-01-23T12:30:27;18.90;41.60
1936;DHT22;969;49.892;10.896;2023-01-23T12:33:04;18.80;41.60
1936;DHT22;969;49.892;10.896;2023-01-23T12:38:22;18.80;41.80
1936;DHT22;969;49.892;10.896;2023-01-23T12:40:51;18.70;41.90
1936;DHT22;969;49.892;10.896;2023-01-23T12:46:04;18.70;42.10
1936;DHT22;969;49.892;10.896;2023-01-23T12:48:45;18.60;42.00
1936;DHT22;969;49.892;10.896;2023-01-23T12:51:23;18.60;41.90
1936;DHT22;969;49.892;10.896;2023-01-23T12:53:52;18.60;42.00
1936;DHT22;969;49.892;10.896;2023-01-23T12:56:30;18.60;42.00
1936;DHT22;969;49.892;10.896;2023-01-23T13:09:27;18.50;42.10
1936;DHT22;969;49.892;10.896;2023-01-23T13:16:58;18.30;42.00
1936;DHT22;969;49.892;10.896;2023-01-23T13:19:29;18.30;42.10
1936;DHT22;969;49.892;10.896;2023-01-23T13:22:28;18.30;42.20
1936;DHT22;969;49.892;10.896;2023-01-23T13:25:12;18.10;39.90
1936;DHT22;969;49.892;10.896;2023-01-23T13:27:40;17.70;41.30
1936;DHT22;969;49.892;10.896;2023-01-23T13:32:48;19.00;40.90
1936;DHT22;969;49.892;10.896;2023-01-23T13:44:00;20.40;38.70
1936;DHT22;969;49.892;10.896;2023-01-23T13:52:26;20.70;38.60
1936;DHT22;969;49.892;10.896;2023-01-23T13:55:20;21.20;38.40
1936;DHT22;969;49.892;10.896;2023-01-23T13:58:12;21.40;38.30
1936;DHT22;969;49.892;10.896;2023-01-23T14:00:42;21.40;38.50
1936;DHT22;969;49.892;10.896;2023-01-23T14:03:33;21.20;38.90
1936;DHT22;969;49.892;10.896;2023-01-23T14:06:30;21.30;39.70
1936;DHT22;969;49.892;10.896;2023-01-23T14:08:56;21.50;39.10
1936;DHT22;969;49.892;10.896;2023-01-23T14:11:21;21.50;39.20
1936;DHT22;969;49.892;10.896;2023-01-23T14:13:52;21.50;39.30
1936;DHT22;969;49.892;10.896;2023-01-23T14:16:48;21.60;39.40
1936;DHT22;969;49.892;10.896;2023-01-23T14:19:29;21.90;38.90
1936;DHT22;969;49.892;10.896;2023-01-23T14:22:02;21.80;38.80
1936;DHT22;969;49.892;10.896;2023-01-23T14:24:42;21.60;38.80
1936;DHT22;969;49.892;10.896;2023-01-23T14:27:25;22.00;38.70
1936;DHT22;969;49.892;10.896;2023-01-23T14:30:00;22.00;38.40
1936;DHT22;969;49.892;10.896;2023-01-23T14:32:31;21.90;38.50
1936;DHT22;969;49.892;10.896;2023-01-23T14:34:57;21.70;38.90
1936;DHT22;969;49.892;10.896;2023-01-23T14:37:23;22.10;38.50
1936;DHT22;969;49.892;10.896;2023-01-23T14:39:50;22.10;38.20
1936;DHT22;969;49.892;10.896;2023-01-23T14:42:27;22.00;38.30
1936;DHT22;969;49.892;10.896;2023-01-23T14:44:55;21.80;38.50
1936;DHT22;969;49.892;10.896;2023-01-23T14:47:43;21.90;38.80
1936;DHT22;969;49.892;10.896;2023-01-23T14:50:15;21.90;38.80
1936;DHT22;969;49.892;10.896;2023-01-23T14:52:42;21.70;39.20
1936;DHT22;969;49.892;10.896;2023-01-23T14:55:21;21.50;39.80
1936;DHT22;969;49.892;10.896;2023-01-23T14:57:49;21.70;39.90
1936;DHT22;969;49.892;10.896;2023-01-23T15:00:17;21.80;39.90
1936;DHT22;969;49.892;10.896;2023-01-23T15:07:55;21.20;43.50
1936;DHT22;969;49.892;10.896;2023-01-23T15:10:30;20.90;43.50
1936;DHT22;969;49.892;10.896;2023-01-23T15:13:04;20.50;43.90
1936;DHT22;969;49.892;10.896;2023-01-23T15:15:34;20.10;44.00
1936;DHT22;969;49.892;10.896;2023-01-23T15:18:02;19.70;44.40
1936;DHT22;969;49.892;10.896;2023-01-23T15:20:34;19.40;44.60
1936;DHT22;969;49.892;10.896;2023-01-23T15:25:47;18.80;45.20
1936;DHT22;969;49.892;10.896;2023-01-23T15:28:30;18.50;45.80
1936;DHT22;969;49.892;10.896;2023-01-23T15:30:56;18.20;46.00
1936;DHT22;969;49.892;10.896;2023-01-23T15:33:32;18.00;46.20
1936;DHT22;969;49.892;10.896;2023-01-23T15:36:07;17.80;46.60
1936;DHT22;969;49.892;10.896;2023-01-23T15:38:33;17.70;46.90
1936;DHT22;969;49.892;10.896;2023-01-23T15:41:00;17.50;47.10
1936;DHT22;969;49.892;10.896;2023-01-23T15:43:32;17.40;47.40
1936;DHT22;969;49.892;10.896;2023-01-23T15:45:57;17.30;47.60
1936;DHT22;969;49.892;10.896;2023-01-23T15:48:23;17.20;47.90
1936;DHT22;969;49.892;10.896;2023-01-23T15:50:49;17.10;48.00
1936;DHT22;969;49.892;10.896;2023-01-23T15:53:15;17.00;48.10
1936;DHT22;969;49.892;10.896;2023-01-23T15:55:40;16.90;48.30
1936;DHT22;969;49.892;10.896;2023-01-23T15:58:12;16.90;48.50
1936;DHT22;969;49.892;10.896;2023-01-23T16:00:39;16.80;48.60
1936;DHT22;969;49.892;10.896;2023-01-23T16:03:05;16.80;48.80
1936;DHT22;969;49.892;10.896;2023-01-23T16:05:34;16.80;48.80
1936;DHT22;969;49.892;10.896;2023-01-23T16:08:00;16.70;48.80
1936;DHT22;969;49.892;10.896;2023-01-23T16:10:29;16.70;49.00
1936;DHT22;969;49.892;10.896;2023-01-23T16:12:56;16.70;48.80
1936;DHT22;969;49.892;10.896;2023-01-23T16:15:28;16.60;48.80
1936;DHT22;969;49.892;10.896;2023-01-23T16:17:54;16.60;48.60
1936;DHT22;969;49.892;10.896;2023-01-23T16:23:02;16.60;48.90
1936;DHT22;969;49.892;10.896;2023-01-23T16:25:33;16.60;48.60
1936;DHT22;969;49.892;10.896;2023-01-23T16:28:00;16.60;48.50
1936;DHT22;969;49.892;10.896;2023-01-23T16:30:26;16.60;48.50
1936;DHT22;969;49.892;10.896;2023-01-23T16:32:56;16.60;48.50
1936;DHT22;969;49.892;10.896;2023-01-23T16:35:22;16.60;48.50
1936;DHT22;969;49.892;10.896;2023-01-23T16:37:51;16.60;48.50
1936;DHT22;969;49.892;10.896;2023-01-23T16:40:26;16.60;48.50
1936;DHT22;969;49.892;10.896;2023-01-23T16:42:54;16.70;48.50
1936;DHT22;969;49.892;10.896;2023-01-23T16:45:25;16.60;48.40
1936;DHT22;969;49.892;10.896;2023-01-23T16:47:55;16.60;48.50
1936;DHT22;969;49.892;10.896;2023-01-23T16:50:36;16.60;48.60
1936;DHT22;969;49.892;10.896;2023-01-23T16:53:05;16.60;48.60
1936;DHT22;969;49.892;10.896;2023-01-23T16:55:39;16.60;48.70
1936;DHT22;969;49.892;10.896;2023-01-23T16:58:09;16.60;48.70
1936;DHT22;969;49.892;10.896;2023-01-23T17:00:36;16.60;48.80
1936;DHT22;969;49.892;10.896;2023-01-23T17:03:07;16.60;48.80
1936;DHT22;969;49.892;10.896;2023-01-23T17:05:33;16.60;48.70
1936;DHT22;969;49.892;10.896;2023-01-23T17:07:58;16.50;48.60
1936;DHT22;969;49.892;10.896;2023-01-23T17:10:24;16.50;48.70
1936;DHT22;969;49.892;10.896;2023-01-23T17:12:53;16.40;48.70
1936;DHT22;969;49.892;10.896;2023-01-23T17:15:25;16.40;48.70
1936;DHT22;969;49.892;10.896;2023-01-23T17:17:55;16.40;48.80
1936;DHT22;969;49.892;10.896;2023-01-23T17:20:22;16.40;48.80
1936;DHT22;969;49.892;10.896;2023-01-23T17:22:48;16.30;48.70
1936;DHT22;969;49.892;10.896;2023-01-23T17:25:19;16.30;48.80
1936;DHT22;969;49.892;10.896;2023-01-23T17:27:46;16.30;48.90
1936;DHT22;969;49.892;10.896;2023-01-23T17:30:17;16.20;48.80
1936;DHT22;969;49.892;10.896;2023-01-23T17:32:47;16.20;48.90
1936;DHT22;969;49.892;10.896;2023-01-23T17:35:19;16.20;48.90
1936;DHT22;969;49.892;10.896;2023-01-23T17:37:46;16.10;49.00
1936;DHT22;969;49.892;10.896;2023-01-23T17:40:13;16.10;48.90
1936;DHT22;969;49.892;10.896;2023-01-23T17:42:39;16.10;48.90
1936;DHT22;969;49.892;10.896;2023-01-23T17:45:05;16.00;48.90
1936;DHT22;969;49.892;10.896;2023-01-23T17:47:32;16.10;49.00
1936;DHT22;969;49.892;10.896;2023-01-23T17:49:59;16.10;49.00
1936;DHT22;969;49.892;10.896;2023-01-23T17:52:26;16.00;49.00
1936;DHT22;969;49.892;10.896;2023-01-23T17:54:54;16.00;49.10
1936;DHT22;969;49.892;10.896;2023-01-23T17:57:20;16.00;49.10
1936;DHT22;969;49.892;10.896;2023-01-23T17:59:46;16.00;49.10
1936;DHT22;969;49.892;10.896;2023-01-23T18:04:48;16.00;49.00
1936;DHT22;969;49.892;10.896;2023-01-23T18:07:14;16.00;49.00